NCAR-RAP Real-Time Weather Data

Output produced by METARs form (30 April 2017  03:14 UTC)
found at http://weather.rap.ucar.edu/surface/
 
Conditions at: KTPA observed 30 April 2017  02:53 UTC
Temperature: 27.8°C (82°F)
Dewpoint: 17.8°C (64°F) [RH = 55%]
Pressure (altimeter): 30.10 inches Hg (1019.4 mb)
[Sea-level pressure: 1019.2 mb]
Winds: from the ESE (120 degrees) at 6 MPH (5 knots; 2.6 m/s)
Visibility: 10 or more miles (16+ km)
Ceiling: at least 12,000 feet AGL
Clouds: scattered clouds at 25000 feet AGL
Present Weather: no significant weather observed at this time
KTPA 300253Z 12005KT 10SM SCT250 28/18 A3010 RMK AO2 SLP192 T02780178 51017

Conditions at: KTPA observed 30 April 2017  01:53 UTC
Temperature: 29.4°C (85°F)
Dewpoint: 16.7°C (62°F) [RH = 46%]
Pressure (altimeter): 30.09 inches Hg (1019.0 mb)
[Sea-level pressure: 1018.7 mb]
Winds: from the ESE (110 degrees) at 10 MPH (9 knots; 4.7 m/s)
gusting to 18 MPH (16 knots; 8.3 m/s)
Visibility: 10 or more miles (16+ km)
Ceiling: at least 12,000 feet AGL
Clouds: few clouds at 7000 feet AGL
scattered clouds at 25000 feet AGL
Present Weather: no significant weather observed at this time
KTPA 300153Z 11009G16KT 10SM FEW070 SCT250 29/17 A3009 RMK AO2 SLP187 T02940167

Conditions at: KTPA observed 30 April 2017  00:53 UTC
Temperature: 30.6°C (87°F)
Dewpoint: 17.2°C (63°F) [RH = 45%]
Pressure (altimeter): 30.06 inches Hg (1018.0 mb)
[Sea-level pressure: 1018.0 mb]
Winds: from the ESE (120 degrees) at 7 MPH (6 knots; 3.1 m/s)
Visibility: 10 or more miles (16+ km)
Ceiling: 25000 feet AGL
Clouds: few clouds at 7000 feet AGL
broken clouds at 25000 feet AGL
Present Weather: no significant weather observed at this time
KTPA 300053Z 12006KT 10SM FEW070 BKN250 31/17 A3006 RMK AO2 SLP180 T03060172

Conditions at: KTPA observed 29 April 2017  23:53 UTC
Temperature: 32.2°C (90°F)
Dewpoint: 16.7°C (62°F) [RH = 40%]
Pressure (altimeter): 30.05 inches Hg (1017.7 mb)
[Sea-level pressure: 1017.4 mb]
Winds: from the SE (140 degrees) at 14 MPH (12 knots; 6.2 m/s)
gusting to 22 MPH (19 knots; 9.9 m/s)
Visibility: 10 or more miles (16+ km)
Ceiling: 9000 feet AGL
Clouds: few clouds at 7000 feet AGL
broken clouds at 9000 feet AGL
Present Weather: no significant weather observed at this time
KTPA 292353Z 14012G19KT 10SM FEW070 BKN090 32/17 A3005 RMK AO2 SLP174 T03220167 10356 20322 53003

Conditions at: KTPA observed 29 April 2017  22:53 UTC
Temperature: 33.3°C (92°F)
Dewpoint: 16.7°C (62°F) [RH = 37%]
Pressure (altimeter): 30.04 inches Hg (1017.4 mb)
[Sea-level pressure: 1017.0 mb]
Winds: from the SE (140 degrees) at 12 MPH (10 knots; 5.2 m/s)
gusting to 20 MPH (17 knots; 8.8 m/s)
Visibility: 10 or more miles (16+ km)
Ceiling: 25000 feet AGL
Clouds: scattered clouds at 7000 feet AGL
broken clouds at 25000 feet AGL
Present Weather: no significant weather observed at this time
KTPA 292253Z 14010G17KT 10SM SCT070 BKN250 33/17 A3004 RMK AO2 SLP170 T03330167

Conditions at: KTPA observed 29 April 2017  21:53 UTC
Temperature: 34.4°C (94°F)
Dewpoint: 15.0°C (59°F) [RH = 31%]
Pressure (altimeter): 30.03 inches Hg (1017.0 mb)
[Sea-level pressure: 1016.8 mb]
Winds: from the SE (140 degrees) at 10 MPH (9 knots; 4.7 m/s)
gusting to 21 MPH (18 knots; 9.4 m/s)
Visibility: 10 or more miles (16+ km)
Ceiling: 25000 feet AGL
Clouds: few clouds at 6500 feet AGL
broken clouds at 25000 feet AGL
Present Weather: no significant weather observed at this time
KTPA 292153Z 14009G18KT 10SM FEW065 BKN250 34/15 A3003 RMK AO2 SLP168 T03440150

Conditions at: KTPA observed 29 April 2017  20:53 UTC
Temperature: 34.4°C (94°F)
Dewpoint: 15.0°C (59°F) [RH = 31%]
Pressure (altimeter): 30.04 inches Hg (1017.4 mb)
[Sea-level pressure: 1017.1 mb]
Winds: from the SE (130 degrees) at 7 MPH (6 knots; 3.1 m/s)
Visibility: 10 or more miles (16+ km)
Ceiling: 25000 feet AGL
Clouds: scattered clouds at 6500 feet AGL
broken clouds at 25000 feet AGL
Present Weather: no significant weather observed at this time
KTPA 292053Z 13006KT 10SM SCT065 BKN250 34/15 A3004 RMK AO2 SLP171 T03440150 56021

Conditions at: KTPA observed 29 April 2017  19:53 UTC
Temperature: 35.0°C (95°F)
Dewpoint: 14.4°C (58°F) [RH = 29%]
Pressure (altimeter): 30.05 inches Hg (1017.7 mb)
[Sea-level pressure: 1017.5 mb]
Winds: from the SE (130 degrees) at 13 MPH (11 knots; 5.7 m/s)
Visibility: 10 or more miles (16+ km)
Ceiling: at least 12,000 feet AGL
Clouds: scattered clouds at 6500 feet AGL
scattered clouds at 25000 feet AGL
Present Weather: no significant weather observed at this time
KTPA 291953Z 13011KT 10SM SCT065 SCT250 35/14 A3005 RMK AO2 SLP175 T03500144

Conditions at: KTPA observed 29 April 2017  18:53 UTC
Temperature: 34.4°C (94°F)
Dewpoint: 16.7°C (62°F) [RH = 35%]
Pressure (altimeter): 30.08 inches Hg (1018.7 mb)
[Sea-level pressure: 1018.5 mb]
Winds: from the SSE (160 degrees) at 13 MPH (11 knots; 5.7 m/s)
gusting to 24 MPH (21 knots; 10.9 m/s)
Visibility: 10 or more miles (16+ km)
Ceiling: 30000 feet AGL
Clouds: scattered clouds at 6500 feet AGL
broken clouds at 30000 feet AGL
Present Weather: no significant weather observed at this time
KTPA 291853Z 16011G21KT 10SM SCT065 BKN300 34/17 A3008 RMK AO2 SLP185 T03440167

Conditions at: KTPA observed 29 April 2017  17:53 UTC
Temperature: 33.3°C (92°F)
Dewpoint: 18.3°C (65°F) [RH = 41%]
Pressure (altimeter): 30.10 inches Hg (1019.4 mb)
[Sea-level pressure: 1019.2 mb]
Winds: from the SE (140 degrees) at 13 MPH (11 knots; 5.7 m/s)
gusting to 18 MPH (16 knots; 8.3 m/s)
Visibility: 10 or more miles (16+ km)
Ceiling: 30000 feet AGL
Clouds: scattered clouds at 5500 feet AGL
broken clouds at 30000 feet AGL
Present Weather: no significant weather observed at this time
KTPA 291753Z 14011G16KT 10SM SCT055TCU BKN300 33/18 A3010 RMK AO2 SLP192 TCU NW-SE T03330183 10339 20250 58010

Conditions at: KTPA observed 29 April 2017  16:53 UTC
Temperature: 31.7°C (89°F)
Dewpoint: 18.3°C (65°F) [RH = 45%]
Pressure (altimeter): 30.12 inches Hg (1020.1 mb)
[Sea-level pressure: 1019.8 mb]
Winds: from the ESE (110 degrees) at 13 MPH (11 knots; 5.7 m/s)
gusting to 24 MPH (21 knots; 10.9 m/s)
Visibility: 10 or more miles (16+ km)
Ceiling: 28000 feet AGL
Clouds: scattered clouds at 4800 feet AGL
scattered clouds at 19000 feet AGL
broken clouds at 28000 feet AGL
Present Weather: no significant weather observed at this time
KTPA 291653Z 11011G21KT 080V140 10SM SCT048 SCT190 BKN280 32/18 A3012 RMK AO2 SLP198 T03170183

Conditions at: KTPA observed 29 April 2017  15:53 UTC
Temperature: 31.1°C (88°F)
Dewpoint: 20.0°C (68°F) [RH = 52%]
Pressure (altimeter): 30.13 inches Hg (1020.4 mb)
[Sea-level pressure: 1020.1 mb]
Winds: from the SE (140 degrees) at 15 MPH (13 knots; 6.8 m/s)
gusting to 23 MPH (20 knots; 10.4 m/s)
Visibility: 10 or more miles (16+ km)
Ceiling: 27000 feet AGL
Clouds: few clouds at 4000 feet AGL
broken clouds at 27000 feet AGL
Present Weather: no significant weather observed at this time
KTPA 291553Z 14013G20KT 10SM FEW040 BKN270 31/20 A3013 RMK AO2 SLP201 T03110200

Conditions at: KTPA observed 29 April 2017  14:53 UTC
Temperature: 29.4°C (85°F)
Dewpoint: 21.1°C (70°F) [RH = 61%]
Pressure (altimeter): 30.13 inches Hg (1020.4 mb)
[Sea-level pressure: 1020.2 mb]
Winds: from the SE (140 degrees) at 10 MPH (9 knots; 4.7 m/s)
gusting to 20 MPH (17 knots; 8.8 m/s)
Visibility: 10 or more miles (16+ km)
Ceiling: 30000 feet AGL
Clouds: scattered clouds at 2500 feet AGL
broken clouds at 30000 feet AGL
Present Weather: no significant weather observed at this time
KTPA 291453Z 14009G17KT 10SM SCT025 BKN300 29/21 A3013 RMK AO2 SLP202 T02940211 50001

Conditions at: KTPA observed 29 April 2017  14:46 UTC
Temperature: 28.9°C (84°F)
Dewpoint: 21.1°C (70°F) [RH = 63%]
Pressure (altimeter): 30.13 inches Hg (1020.4 mb)
Winds: from the SSE (150 degrees) at 13 MPH (11 knots; 5.7 m/s)
gusting to 20 MPH (17 knots; 8.8 m/s)
Visibility: 10 or more miles (16+ km)
Ceiling: 30000 feet AGL
Clouds: scattered clouds at 2500 feet AGL
broken clouds at 30000 feet AGL
Present Weather: no significant weather observed at this time
KTPA 291446Z 15011G17KT 10SM SCT025 BKN300 29/21 A3013 RMK AO2 T02890211

Conditions at: KTPA observed 29 April 2017  13:53 UTC
Temperature: 27.8°C (82°F)
Dewpoint: 21.7°C (71°F) [RH = 69%]
Pressure (altimeter): 30.13 inches Hg (1020.4 mb)
[Sea-level pressure: 1020.3 mb]
Winds: from the SE (140 degrees) at 9 MPH (8 knots; 4.2 m/s)
gusting to 21 MPH (18 knots; 9.4 m/s)
Visibility: 10 or more miles (16+ km)
Ceiling: 2000 feet AGL
Clouds: broken clouds at 2000 feet AGL
broken clouds at 30000 feet AGL
Present Weather: no significant weather observed at this time
KTPA 291353Z 14008G18KT 10SM BKN020 BKN300 28/22 A3013 RMK AO2 SLP203 CIG 020V026 T02780217

Conditions at: KTPA observed 29 April 2017  13:28 UTC
Temperature: 27.2°C (81°F)
Dewpoint: 21.7°C (71°F) [RH = 72%]
Pressure (altimeter): 30.13 inches Hg (1020.4 mb)
Winds: from the SE (130 degrees) at 12 MPH (10 knots; 5.2 m/s)
gusting to 22 MPH (19 knots; 9.9 m/s)
Visibility: 10 or more miles (16+ km)
Ceiling: 1600 feet AGL
Clouds: broken clouds at 1600 feet AGL
broken clouds at 30000 feet AGL
Present Weather: no significant weather observed at this time
KTPA 291328Z 13010G19KT 10SM BKN016 BKN300 27/22 A3013 RMK AO2 CIG 016V020 T02720217

Conditions at: KTPA observed 29 April 2017  12:53 UTC
Temperature: 26.1°C (79°F)
Dewpoint: 21.7°C (71°F) [RH = 77%]
Pressure (altimeter): 30.13 inches Hg (1020.4 mb)
[Sea-level pressure: 1020.2 mb]
Winds: from the ESE (120 degrees) at 12 MPH (10 knots; 5.2 m/s)
gusting to 22 MPH (19 knots; 9.9 m/s)
Visibility: 10 or more miles (16+ km)
Ceiling: 1400 feet AGL
Clouds: broken clouds at 1400 feet AGL
broken clouds at 27000 feet AGL
Present Weather: no significant weather observed at this time
KTPA 291253Z 12010G19KT 10SM BKN014 BKN270 26/22 A3013 RMK AO2 SLP202 T02610217

Conditions at: KTPA observed 29 April 2017  12:45 UTC
Temperature: 26.1°C (79°F)
Dewpoint: 21.7°C (71°F) [RH = 77%]
Pressure (altimeter): 30.13 inches Hg (1020.4 mb)
Winds: from the ESE (120 degrees) at 10 MPH (9 knots; 4.7 m/s)
gusting to 17 MPH (15 knots; 7.8 m/s)
Visibility: 10 or more miles (16+ km)
Ceiling: 1300 feet AGL
Clouds: broken clouds at 1300 feet AGL
broken clouds at 27000 feet AGL
Present Weather: no significant weather observed at this time
KTPA 291245Z 12009G15KT 10SM BKN013 BKN270 26/22 A3013 RMK AO2 T02610217

Conditions at: KTPA observed 29 April 2017  11:53 UTC
Temperature: 25.0°C (77°F)
Dewpoint: 21.7°C (71°F) [RH = 82%]
Pressure (altimeter): 30.13 inches Hg (1020.4 mb)
[Sea-level pressure: 1020.1 mb]
Winds: from the ESE (110 degrees) at 7 MPH (6 knots; 3.1 m/s)
Visibility: 10 or more miles (16+ km)
Ceiling: 27000 feet AGL
Clouds: few clouds at 1100 feet AGL
few clouds at 2000 feet AGL
broken clouds at 27000 feet AGL
Present Weather: no significant weather observed at this time
KTPA 291153Z 11006KT 10SM FEW011 FEW020 BKN270 25/22 A3013 RMK AO2 SLP201 T02500217 10261 20239 53014

Conditions at: KTPA observed 29 April 2017  10:53 UTC
Temperature: 24.4°C (76°F)
Dewpoint: 21.7°C (71°F) [RH = 85%]
Pressure (altimeter): 30.11 inches Hg (1019.7 mb)
[Sea-level pressure: 1019.5 mb]
Winds: from the ESE (110 degrees) at 8 MPH (7 knots; 3.6 m/s)
Visibility: 10 or more miles (16+ km)
Ceiling: at least 12,000 feet AGL
Clouds: few clouds at 1000 feet AGL
scattered clouds at 25000 feet AGL
Present Weather: no significant weather observed at this time
KTPA 291053Z 11007KT 10SM FEW010 SCT250 24/22 A3011 RMK AO2 SLP195 T02440217

Conditions at: KTPA observed 29 April 2017  09:53 UTC
Temperature: 24.4°C (76°F)
Dewpoint: 21.7°C (71°F) [RH = 85%]
Pressure (altimeter): 30.09 inches Hg (1019.0 mb)
[Sea-level pressure: 1018.8 mb]
Winds: from the ESE (120 degrees) at 7 MPH (6 knots; 3.1 m/s)
Visibility: 10 or more miles (16+ km)
Ceiling: at least 12,000 feet AGL
Clouds: few clouds at 1100 feet AGL
Present Weather: no significant weather observed at this time
KTPA 290953Z 12006KT 10SM FEW011 24/22 A3009 RMK AO2 SLP188 T02440217

Conditions at: KTPA observed 29 April 2017  08:53 UTC
Temperature: 24.4°C (76°F)
Dewpoint: 21.7°C (71°F) [RH = 85%]
Pressure (altimeter): 30.08 inches Hg (1018.7 mb)
[Sea-level pressure: 1018.7 mb]
Winds: from the ESE (110 degrees) at 9 MPH (8 knots; 4.2 m/s)
Visibility: 10 or more miles (16+ km)
Ceiling: at least 12,000 feet AGL
Clouds: sky clear below 12,000 feet AGL
Present Weather: no significant weather observed at this time
KTPA 290853Z 11008KT 10SM CLR 24/22 A3008 RMK AO2 SLP187 T02440217 56007

Conditions at: KTPA observed 29 April 2017  07:53 UTC
Temperature: 25.0°C (77°F)
Dewpoint: 21.7°C (71°F) [RH = 82%]
Pressure (altimeter): 30.09 inches Hg (1019.0 mb)
[Sea-level pressure: 1018.9 mb]
Winds: variable direction winds at 7 MPH (6 knots; 3.1 m/s)
Visibility: 10 or more miles (16+ km)
Ceiling: at least 12,000 feet AGL
Clouds: sky clear below 12,000 feet AGL
Present Weather: no significant weather observed at this time
KTPA 290753Z VRB06KT 10SM CLR 25/22 A3009 RMK AO2 SLP189 T02500217

Conditions at: KTPA observed 29 April 2017  06:53 UTC
Temperature: 25.0°C (77°F)
Dewpoint: 21.1°C (70°F) [RH = 79%]
Pressure (altimeter): 30.09 inches Hg (1019.0 mb)
[Sea-level pressure: 1018.9 mb]
Winds: from the ESE (110 degrees) at 7 MPH (6 knots; 3.1 m/s)
Visibility: 10 or more miles (16+ km)
Ceiling: at least 12,000 feet AGL
Clouds: sky clear below 12,000 feet AGL
Present Weather: no significant weather observed at this time
KTPA 290653Z 11006KT 10SM CLR 25/21 A3009 RMK AO2 SLP189 T02500211

Conditions at: KTPA observed 29 April 2017  05:53 UTC
Temperature: 26.1°C (79°F)
Dewpoint: 21.1°C (70°F) [RH = 74%]
Pressure (altimeter): 30.10 inches Hg (1019.4 mb)
[Sea-level pressure: 1019.3 mb]
Winds: variable direction winds at 7 MPH (6 knots; 3.1 m/s)
Visibility: 10 or more miles (16+ km)
Ceiling: at least 12,000 feet AGL
Clouds: sky clear below 12,000 feet AGL
Present Weather: no significant weather observed at this time
KTPA 290553Z VRB06KT 10SM CLR 26/21 A3010 RMK AO2 SLP193 T02610211 10289 20261 51003

Conditions at: KTPA observed 29 April 2017  04:53 UTC
Temperature: 27.2°C (81°F)
Dewpoint: 21.1°C (70°F) [RH = 69%]
Pressure (altimeter): 30.10 inches Hg (1019.4 mb)
[Sea-level pressure: 1019.3 mb]
Winds: from the SE (130 degrees) at 9 MPH (8 knots; 4.2 m/s)
Visibility: 10 or more miles (16+ km)
Ceiling: at least 12,000 feet AGL
Clouds: sky clear below 12,000 feet AGL
Present Weather: no significant weather observed at this time
KTPA 290453Z 13008KT 10SM CLR 27/21 A3010 RMK AO2 SLP193 T02720211 403390239

Conditions at: KTPA observed 29 April 2017  03:53 UTC
Temperature: 27.8°C (82°F)
Dewpoint: 20.6°C (69°F) [RH = 65%]
Pressure (altimeter): 30.10 inches Hg (1019.4 mb)
[Sea-level pressure: 1019.3 mb]
Winds: from the SE (140 degrees) at 10 MPH (9 knots; 4.7 m/s)
Visibility: 10 or more miles (16+ km)
Ceiling: at least 12,000 feet AGL
Clouds: sky clear below 12,000 feet AGL
Present Weather: no significant weather observed at this time
KTPA 290353Z 14009KT 10SM CLR 28/21 A3010 RMK AO2 SLP193 T02780206